sensor_id;sensor_type;location;lat;lon;timestamp;temperature;humidity
62259;DHT22;48241;48.824;10.102;2023-09-08T00:01:57;16.90;97.00
62259;DHT22;48241;48.824;10.102;2023-09-08T00:04:23;16.60;97.20
62259;DHT22;48241;48.824;10.102;2023-09-08T00:06:49;16.60;97.60
62259;DHT22;48241;48.824;10.102;2023-09-08T00:09:15;16.60;97.70
62259;DHT22;48241;48.824;10.102;2023-09-08T00:11:40;16.60;97.40
62259;DHT22;48241;48.824;10.102;2023-09-08T00:14:06;16.70;97.10
62259;DHT22;48241;48.824;10.102;2023-09-08T00:16:31;16.60;97.40
62259;DHT22;48241;48.824;10.102;2023-09-08T00:18:57;16.60;97.60
62259;DHT22;48241;48.824;10.102;2023-09-08T00:21:25;16.50;97.60
62259;DHT22;48241;48.824;10.102;2023-09-08T00:23:54;16.60;97.20
62259;DHT22;48241;48.824;10.102;2023-09-08T00:26:20;16.60;97.00
62259;DHT22;48241;48.824;10.102;2023-09-08T00:28:46;16.60;97.20
62259;DHT22;48241;48.824;10.102;2023-09-08T00:31:12;16.70;97.20
62259;DHT22;48241;48.824;10.102;2023-09-08T00:33:37;16.50;97.40
62259;DHT22;48241;48.824;10.102;2023-09-08T00:36:03;16.50;97.70
62259;DHT22;48241;48.824;10.102;2023-09-08T00:38:29;16.60;97.70
62259;DHT22;48241;48.824;10.102;2023-09-08T00:40:55;16.50;97.90
62259;DHT22;48241;48.824;10.102;2023-09-08T00:43:20;16.70;97.80
62259;DHT22;48241;48.824;10.102;2023-09-08T00:45:46;16.60;97.60
62259;DHT22;48241;48.824;10.102;2023-09-08T00:48:13;16.60;97.60
62259;DHT22;48241;48.824;10.102;2023-09-08T00:50:39;16.50;97.70
62259;DHT22;48241;48.824;10.102;2023-09-08T00:53:06;16.50;98.10
62259;DHT22;48241;48.824;10.102;2023-09-08T00:55:33;16.30;98.60
62259;DHT22;48241;48.824;10.102;2023-09-08T00:57:59;16.30;98.90
62259;DHT22;48241;48.824;10.102;2023-09-08T01:00:25;16.60;99.30
62259;DHT22;48241;48.824;10.102;2023-09-08T01:02:51;16.50;99.10
62259;DHT22;48241;48.824;10.102;2023-09-08T01:05:17;16.50;98.70
62259;DHT22;48241;48.824;10.102;2023-09-08T01:07:44;16.70;98.70
62259;DHT22;48241;48.824;10.102;2023-09-08T01:10:10;16.60;98.70
62259;DHT22;48241;48.824;10.102;2023-09-08T01:12:35;16.60;98.60
62259;DHT22;48241;48.824;10.102;2023-09-08T01:15:02;16.40;99.20
62259;DHT22;48241;48.824;10.102;2023-09-08T01:17:28;16.40;99.20
62259;DHT22;48241;48.824;10.102;2023-09-08T01:19:55;16.50;99.20
62259;DHT22;48241;48.824;10.102;2023-09-08T01:25:21;16.50;99.10
62259;DHT22;48241;48.824;10.102;2023-09-08T01:27:52;16.40;98.80
62259;DHT22;48241;48.824;10.102;2023-09-08T01:30:19;16.50;98.90
62259;DHT22;48241;48.824;10.102;2023-09-08T01:32:46;16.60;98.80
62259;DHT22;48241;48.824;10.102;2023-09-08T01:35:12;16.50;98.50
62259;DHT22;48241;48.824;10.102;2023-09-08T01:37:44;16.40;98.40
62259;DHT22;48241;48.824;10.102;2023-09-08T01:40:10;16.50;98.60
62259;DHT22;48241;48.824;10.102;2023-09-08T01:42:37;16.50;98.50
62259;DHT22;48241;48.824;10.102;2023-09-08T01:45:04;16.70;98.70
62259;DHT22;48241;48.824;10.102;2023-09-08T01:47:30;16.50;99.00
62259;DHT22;48241;48.824;10.102;2023-09-08T01:49:55;16.50;99.10
62259;DHT22;48241;48.824;10.102;2023-09-08T01:52:21;16.40;99.10
62259;DHT22;48241;48.824;10.102;2023-09-08T01:54:47;16.50;99.40
62259;DHT22;48241;48.824;10.102;2023-09-08T01:57:12;16.50;99.30
62259;DHT22;48241;48.824;10.102;2023-09-08T01:59:38;16.60;99.40
62259;DHT22;48241;48.824;10.102;2023-09-08T02:02:04;16.50;99.90
62259;DHT22;48241;48.824;10.102;2023-09-08T02:04:29;16.70;99.50
62259;DHT22;48241;48.824;10.102;2023-09-08T02:06:55;16.50;99.60
62259;DHT22;48241;48.824;10.102;2023-09-08T02:09:22;16.70;99.40
62259;DHT22;48241;48.824;10.102;2023-09-08T02:11:47;16.50;99.20
62259;DHT22;48241;48.824;10.102;2023-09-08T02:14:13;16.70;98.90
62259;DHT22;48241;48.824;10.102;2023-09-08T02:16:38;16.70;98.80
62259;DHT22;48241;48.824;10.102;2023-09-08T02:19:05;16.70;98.60
62259;DHT22;48241;48.824;10.102;2023-09-08T02:21:30;16.70;98.70
62259;DHT22;48241;48.824;10.102;2023-09-08T02:23:56;16.90;97.90
62259;DHT22;48241;48.824;10.102;2023-09-08T02:26:21;16.90;98.10
62259;DHT22;48241;48.824;10.102;2023-09-08T02:28:47;16.70;98.10
62259;DHT22;48241;48.824;10.102;2023-09-08T02:31:12;16.80;97.80
62259;DHT22;48241;48.824;10.102;2023-09-08T02:33:38;16.80;98.20
62259;DHT22;48241;48.824;10.102;2023-09-08T02:36:04;16.80;96.90
62259;DHT22;48241;48.824;10.102;2023-09-08T02:38:31;16.80;97.30
62259;DHT22;48241;48.824;10.102;2023-09-08T02:40:57;16.90;97.20
62259;DHT22;48241;48.824;10.102;2023-09-08T02:43:22;16.80;97.50
62259;DHT22;48241;48.824;10.102;2023-09-08T02:45:49;16.80;97.20
62259;DHT22;48241;48.824;10.102;2023-09-08T02:48:15;16.90;97.00
62259;DHT22;48241;48.824;10.102;2023-09-08T02:50:42;16.90;96.60
62259;DHT22;48241;48.824;10.102;2023-09-08T02:53:07;17.00;95.70
62259;DHT22;48241;48.824;10.102;2023-09-08T02:55:33;17.00;95.20
62259;DHT22;48241;48.824;10.102;2023-09-08T02:57:58;17.10;95.50
62259;DHT22;48241;48.824;10.102;2023-09-08T03:00:24;17.10;96.20
62259;DHT22;48241;48.824;10.102;2023-09-08T03:02:50;17.10;95.70
62259;DHT22;48241;48.824;10.102;2023-09-08T03:05:15;17.20;95.30
62259;DHT22;48241;48.824;10.102;2023-09-08T03:07:41;17.10;94.40
62259;DHT22;48241;48.824;10.102;2023-09-08T03:10:07;17.10;95.20
62259;DHT22;48241;48.824;10.102;2023-09-08T03:12:32;17.20;95.00
62259;DHT22;48241;48.824;10.102;2023-09-08T03:14:58;17.20;94.80
62259;DHT22;48241;48.824;10.102;2023-09-08T03:17:23;17.20;94.20
62259;DHT22;48241;48.824;10.102;2023-09-08T03:19:49;17.20;93.30
62259;DHT22;48241;48.824;10.102;2023-09-08T03:22:15;17.40;93.70
62259;DHT22;48241;48.824;10.102;2023-09-08T03:24:40;17.30;93.20
62259;DHT22;48241;48.824;10.102;2023-09-08T03:27:06;17.50;92.90
62259;DHT22;48241;48.824;10.102;2023-09-08T03:29:31;17.30;92.80
62259;DHT22;48241;48.824;10.102;2023-09-08T03:31:57;17.60;93.10
62259;DHT22;48241;48.824;10.102;2023-09-08T03:34:22;17.50;92.90
62259;DHT22;48241;48.824;10.102;2023-09-08T03:36:49;17.60;92.40
62259;DHT22;48241;48.824;10.102;2023-09-08T03:39:15;17.60;92.00
62259;DHT22;48241;48.824;10.102;2023-09-08T03:41:40;17.70;92.60
62259;DHT22;48241;48.824;10.102;2023-09-08T03:44:06;17.60;93.10
62259;DHT22;48241;48.824;10.102;2023-09-08T03:46:31;17.60;92.10
62259;DHT22;48241;48.824;10.102;2023-09-08T03:48:57;17.50;93.10
62259;DHT22;48241;48.824;10.102;2023-09-08T03:51:26;17.40;93.30
62259;DHT22;48241;48.824;10.102;2023-09-08T03:53:53;17.40;93.20
62259;DHT22;48241;48.824;10.102;2023-09-08T03:56:19;17.20;92.50
62259;DHT22;48241;48.824;10.102;2023-09-08T03:58:46;17.30;91.90
62259;DHT22;48241;48.824;10.102;2023-09-08T04:01:11;17.40;92.80
62259;DHT22;48241;48.824;10.102;2023-09-08T04:03:37;17.30;93.00
62259;DHT22;48241;48.824;10.102;2023-09-08T04:06:02;17.30;93.00
62259;DHT22;48241;48.824;10.102;2023-09-08T04:08:28;17.20;92.70
62259;DHT22;48241;48.824;10.102;2023-09-08T04:10:54;17.30;92.90
62259;DHT22;48241;48.824;10.102;2023-09-08T04:13:19;17.30;93.20
62259;DHT22;48241;48.824;10.102;2023-09-08T04:15:45;17.30;92.60
62259;DHT22;48241;48.824;10.102;2023-09-08T04:18:10;17.20;93.80
62259;DHT22;48241;48.824;10.102;2023-09-08T04:20:36;17.20;94.20
62259;DHT22;48241;48.824;10.102;2023-09-08T04:23:01;17.30;94.20
62259;DHT22;48241;48.824;10.102;2023-09-08T04:25:27;16.90;94.60
62259;DHT22;48241;48.824;10.102;2023-09-08T04:27:52;17.00;94.50
62259;DHT22;48241;48.824;10.102;2023-09-08T04:30:18;16.80;94.70
62259;DHT22;48241;48.824;10.102;2023-09-08T04:32:44;16.80;94.90
62259;DHT22;48241;48.824;10.102;2023-09-08T04:35:10;16.80;95.00
62259;DHT22;48241;48.824;10.102;2023-09-08T04:37:35;16.70;94.40
62259;DHT22;48241;48.824;10.102;2023-09-08T04:40:02;16.80;95.20
62259;DHT22;48241;48.824;10.102;2023-09-08T04:42:28;16.50;94.40
62259;DHT22;48241;48.824;10.102;2023-09-08T04:44:54;16.60;94.80
62259;DHT22;48241;48.824;10.102;2023-09-08T04:47:20;16.60;94.20
62259;DHT22;48241;48.824;10.102;2023-09-08T04:49:46;16.70;93.90
62259;DHT22;48241;48.824;10.102;2023-09-08T04:52:11;16.80;93.90
62259;DHT22;48241;48.824;10.102;2023-09-08T04:54:37;17.20;94.00
62259;DHT22;48241;48.824;10.102;2023-09-08T04:57:03;17.00;93.50
62259;DHT22;48241;48.824;10.102;2023-09-08T04:59:28;16.80;93.80
62259;DHT22;48241;48.824;10.102;2023-09-08T05:01:54;16.90;94.10
62259;DHT22;48241;48.824;10.102;2023-09-08T05:04:20;16.90;93.60
62259;DHT22;48241;48.824;10.102;2023-09-08T05:06:45;16.90;93.80
62259;DHT22;48241;48.824;10.102;2023-09-08T05:09:12;16.90;94.40
62259;DHT22;48241;48.824;10.102;2023-09-08T05:11:37;17.00;94.10
62259;DHT22;48241;48.824;10.102;2023-09-08T05:14:03;16.80;94.10
62259;DHT22;48241;48.824;10.102;2023-09-08T05:16:30;17.00;94.10
62259;DHT22;48241;48.824;10.102;2023-09-08T05:19:03;17.10;94.00
62259;DHT22;48241;48.824;10.102;2023-09-08T05:21:30;17.00;93.50
62259;DHT22;48241;48.824;10.102;2023-09-08T05:23:56;17.20;93.60
62259;DHT22;48241;48.824;10.102;2023-09-08T05:26:22;17.10;93.20
62259;DHT22;48241;48.824;10.102;2023-09-08T05:28:47;17.00;94.30
62259;DHT22;48241;48.824;10.102;2023-09-08T05:31:13;17.00;93.10
62259;DHT22;48241;48.824;10.102;2023-09-08T05:33:38;17.10;93.80
62259;DHT22;48241;48.824;10.102;2023-09-08T05:36:04;17.10;93.90
62259;DHT22;48241;48.824;10.102;2023-09-08T05:38:29;17.20;93.70
62259;DHT22;48241;48.824;10.102;2023-09-08T05:40:55;17.30;93.90
62259;DHT22;48241;48.824;10.102;2023-09-08T05:43:21;17.30;92.60
62259;DHT22;48241;48.824;10.102;2023-09-08T05:45:46;17.30;93.60
62259;DHT22;48241;48.824;10.102;2023-09-08T05:48:12;17.20;94.10
62259;DHT22;48241;48.824;10.102;2023-09-08T05:50:37;17.20;94.50
62259;DHT22;48241;48.824;10.102;2023-09-08T05:53:03;17.20;93.60
62259;DHT22;48241;48.824;10.102;2023-09-08T05:55:29;17.20;93.50
62259;DHT22;48241;48.824;10.102;2023-09-08T05:57:55;17.30;93.60
62259;DHT22;48241;48.824;10.102;2023-09-08T06:00:21;17.40;93.70
62259;DHT22;48241;48.824;10.102;2023-09-08T06:02:47;17.40;92.60
62259;DHT22;48241;48.824;10.102;2023-09-08T06:05:13;17.60;93.20
62259;DHT22;48241;48.824;10.102;2023-09-08T06:07:38;17.90;92.20
62259;DHT22;48241;48.824;10.102;2023-09-08T06:10:04;18.10;91.80
62259;DHT22;48241;48.824;10.102;2023-09-08T06:12:30;18.40;91.20
62259;DHT22;48241;48.824;10.102;2023-09-08T06:14:56;18.80;90.60
62259;DHT22;48241;48.824;10.102;2023-09-08T06:17:21;19.00;90.30
62259;DHT22;48241;48.824;10.102;2023-09-08T06:19:47;19.20;89.60
62259;DHT22;48241;48.824;10.102;2023-09-08T06:22:12;19.30;89.00
62259;DHT22;48241;48.824;10.102;2023-09-08T06:24:38;19.40;88.20
62259;DHT22;48241;48.824;10.102;2023-09-08T06:27:04;19.60;89.80
62259;DHT22;48241;48.824;10.102;2023-09-08T06:29:29;19.70;88.60
62259;DHT22;48241;48.824;10.102;2023-09-08T06:31:55;19.80;89.70
62259;DHT22;48241;48.824;10.102;2023-09-08T06:34:20;19.80;90.20
62259;DHT22;48241;48.824;10.102;2023-09-08T06:36:48;19.80;90.00
62259;DHT22;48241;48.824;10.102;2023-09-08T06:39:14;19.70;90.70
62259;DHT22;48241;48.824;10.102;2023-09-08T06:41:39;19.50;90.80
62259;DHT22;48241;48.824;10.102;2023-09-08T06:44:05;19.40;91.40
62259;DHT22;48241;48.824;10.102;2023-09-08T06:46:31;19.60;91.30
62259;DHT22;48241;48.824;10.102;2023-09-08T06:48:56;19.70;91.30
62259;DHT22;48241;48.824;10.102;2023-09-08T06:51:22;19.70;91.40
62259;DHT22;48241;48.824;10.102;2023-09-08T06:53:55;19.60;91.60
62259;DHT22;48241;48.824;10.102;2023-09-08T06:56:22;19.70;91.70
62259;DHT22;48241;48.824;10.102;2023-09-08T06:58:47;19.80;92.10
62259;DHT22;48241;48.824;10.102;2023-09-08T07:01:13;19.80;91.80
62259;DHT22;48241;48.824;10.102;2023-09-08T07:03:38;19.90;91.80
62259;DHT22;48241;48.824;10.102;2023-09-08T07:06:04;20.00;91.70
62259;DHT22;48241;48.824;10.102;2023-09-08T07:08:29;19.90;91.80
62259;DHT22;48241;48.824;10.102;2023-09-08T07:10:55;20.00;92.10
62259;DHT22;48241;48.824;10.102;2023-09-08T07:13:21;20.20;91.90
62259;DHT22;48241;48.824;10.102;2023-09-08T07:15:46;20.30;91.80
62259;DHT22;48241;48.824;10.102;2023-09-08T07:18:12;20.40;91.40
62259;DHT22;48241;48.824;10.102;2023-09-08T07:20:37;20.50;91.30
62259;DHT22;48241;48.824;10.102;2023-09-08T07:23:03;20.50;91.30
62259;DHT22;48241;48.824;10.102;2023-09-08T07:25:29;20.70;91.20
62259;DHT22;48241;48.824;10.102;2023-09-08T07:27:54;20.80;91.00
62259;DHT22;48241;48.824;10.102;2023-09-08T07:30:20;20.90;90.90
62259;DHT22;48241;48.824;10.102;2023-09-08T07:32:46;21.10;90.90
62259;DHT22;48241;48.824;10.102;2023-09-08T07:35:12;21.40;90.10
62259;DHT22;48241;48.824;10.102;2023-09-08T07:37:40;21.40;89.40
62259;DHT22;48241;48.824;10.102;2023-09-08T07:40:08;21.80;89.40
62259;DHT22;48241;48.824;10.102;2023-09-08T07:42:34;22.30;88.80
62259;DHT22;48241;48.824;10.102;2023-09-08T07:45:00;23.00;84.90
62259;DHT22;48241;48.824;10.102;2023-09-08T07:47:25;24.30;83.00
62259;DHT22;48241;48.824;10.102;2023-09-08T07:49:51;26.40;75.60
62259;DHT22;48241;48.824;10.102;2023-09-08T07:52:16;28.80;69.40
62259;DHT22;48241;48.824;10.102;2023-09-08T07:54:42;30.90;63.40
62259;DHT22;48241;48.824;10.102;2023-09-08T07:57:08;33.10;57.70
62259;DHT22;48241;48.824;10.102;2023-09-08T07:59:33;35.10;52.30
62259;DHT22;48241;48.824;10.102;2023-09-08T08:02:00;36.70;49.30
62259;DHT22;48241;48.824;10.102;2023-09-08T08:04:25;38.10;46.20
62259;DHT22;48241;48.824;10.102;2023-09-08T08:06:51;38.20;42.90
62259;DHT22;48241;48.824;10.102;2023-09-08T08:09:17;38.40;42.60
62259;DHT22;48241;48.824;10.102;2023-09-08T08:11:42;38.80;40.90
62259;DHT22;48241;48.824;10.102;2023-09-08T08:14:08;38.70;39.10
62259;DHT22;48241;48.824;10.102;2023-09-08T08:16:33;39.60;40.00
62259;DHT22;48241;48.824;10.102;2023-09-08T08:19:00;40.30;39.60
62259;DHT22;48241;48.824;10.102;2023-09-08T08:21:25;40.20;37.90
62259;DHT22;48241;48.824;10.102;2023-09-08T08:23:51;40.90;37.60
62259;DHT22;48241;48.824;10.102;2023-09-08T08:26:17;41.20;37.40
62259;DHT22;48241;48.824;10.102;2023-09-08T08:28:43;41.20;36.50
62259;DHT22;48241;48.824;10.102;2023-09-08T08:31:09;40.70;37.50
62259;DHT22;48241;48.824;10.102;2023-09-08T08:33:34;39.50;36.00
62259;DHT22;48241;48.824;10.102;2023-09-08T08:36:00;39.40;36.80
62259;DHT22;48241;48.824;10.102;2023-09-08T08:38:26;39.70;37.40
62259;DHT22;48241;48.824;10.102;2023-09-08T08:40:52;39.90;35.50
62259;DHT22;48241;48.824;10.102;2023-09-08T08:43:17;40.10;36.30
62259;DHT22;48241;48.824;10.102;2023-09-08T08:45:46;40.60;35.80
62259;DHT22;48241;48.824;10.102;2023-09-08T08:48:13;40.20;36.50
62259;DHT22;48241;48.824;10.102;2023-09-08T08:50:40;39.10;36.00
62259;DHT22;48241;48.824;10.102;2023-09-08T08:53:08;38.10;37.40
62259;DHT22;48241;48.824;10.102;2023-09-08T08:55:34;37.80;38.00
62259;DHT22;48241;48.824;10.102;2023-09-08T08:58:05;38.10;38.10
62259;DHT22;48241;48.824;10.102;2023-09-08T09:00:34;38.50;38.20
62259;DHT22;48241;48.824;10.102;2023-09-08T09:03:01;38.10;38.10
62259;DHT22;48241;48.824;10.102;2023-09-08T09:05:29;38.00;38.00
62259;DHT22;48241;48.824;10.102;2023-09-08T09:07:58;37.90;38.50
62259;DHT22;48241;48.824;10.102;2023-09-08T09:10:24;37.70;38.10
62259;DHT22;48241;48.824;10.102;2023-09-08T09:12:49;37.40;38.90
62259;DHT22;48241;48.824;10.102;2023-09-08T09:15:15;37.80;38.80
62259;DHT22;48241;48.824;10.102;2023-09-08T09:17:41;38.00;41.10
62259;DHT22;48241;48.824;10.102;2023-09-08T09:22:40;37.80;39.90
62259;DHT22;48241;48.824;10.102;2023-09-08T09:25:06;37.30;40.10
62259;DHT22;48241;48.824;10.102;2023-09-08T09:27:33;37.70;38.30
62259;DHT22;48241;48.824;10.102;2023-09-08T09:30:03;37.20;40.10
62259;DHT22;48241;48.824;10.102;2023-09-08T09:32:29;37.30;39.30
62259;DHT22;48241;48.824;10.102;2023-09-08T09:34:57;36.80;44.30
62259;DHT22;48241;48.824;10.102;2023-09-08T09:37:23;36.90;40.10
62259;DHT22;48241;48.824;10.102;2023-09-08T09:39:50;36.90;39.70
62259;DHT22;48241;48.824;10.102;2023-09-08T09:42:17;35.50;41.30
62259;DHT22;48241;48.824;10.102;2023-09-08T09:44:43;35.50;41.60
62259;DHT22;48241;48.824;10.102;2023-09-08T09:47:09;34.80;43.60
62259;DHT22;48241;48.824;10.102;2023-09-08T09:49:45;35.70;41.60
62259;DHT22;48241;48.824;10.102;2023-09-08T09:52:21;36.60;42.50
62259;DHT22;48241;48.824;10.102;2023-09-08T09:54:48;37.30;41.90
62259;DHT22;48241;48.824;10.102;2023-09-08T09:57:16;38.50;41.20
62259;DHT22;48241;48.824;10.102;2023-09-08T09:59:43;38.80;39.70
62259;DHT22;48241;48.824;10.102;2023-09-08T10:02:13;38.70;45.20
62259;DHT22;48241;48.824;10.102;2023-09-08T10:04:42;38.40;38.90
62259;DHT22;48241;48.824;10.102;2023-09-08T10:07:09;39.20;41.90
62259;DHT22;48241;48.824;10.102;2023-09-08T10:09:37;38.40;41.30
62259;DHT22;48241;48.824;10.102;2023-09-08T10:12:04;37.00;44.80
62259;DHT22;48241;48.824;10.102;2023-09-08T10:14:32;35.90;46.50
62259;DHT22;48241;48.824;10.102;2023-09-08T10:17:01;34.70;45.60
62259;DHT22;48241;48.824;10.102;2023-09-08T10:19:27;34.00;44.40
62259;DHT22;48241;48.824;10.102;2023-09-08T10:21:57;33.10;50.60
62259;DHT22;48241;48.824;10.102;2023-09-08T10:24:27;32.60;53.00
62259;DHT22;48241;48.824;10.102;2023-09-08T10:27:08;32.10;46.40
62259;DHT22;48241;48.824;10.102;2023-09-08T10:29:35;31.70;47.80
62259;DHT22;48241;48.824;10.102;2023-09-08T10:32:01;31.30;55.60
62259;DHT22;48241;48.824;10.102;2023-09-08T10:34:28;31.20;57.40
62259;DHT22;48241;48.824;10.102;2023-09-08T10:36:55;30.90;57.50
62259;DHT22;48241;48.824;10.102;2023-09-08T10:39:36;30.30;55.40
62259;DHT22;48241;48.824;10.102;2023-09-08T10:44:56;29.40;57.20
62259;DHT22;48241;48.824;10.102;2023-09-08T10:47:23;29.30;63.20
62259;DHT22;48241;48.824;10.102;2023-09-08T10:49:50;29.10;64.40
62259;DHT22;48241;48.824;10.102;2023-09-08T10:52:21;29.40;56.20
62259;DHT22;48241;48.824;10.102;2023-09-08T10:54:48;29.50;61.90
62259;DHT22;48241;48.824;10.102;2023-09-08T10:57:16;28.40;60.30
62259;DHT22;48241;48.824;10.102;2023-09-08T10:59:51;28.20;59.20
62259;DHT22;48241;48.824;10.102;2023-09-08T11:02:38;28.40;55.90
62259;DHT22;48241;48.824;10.102;2023-09-08T11:05:12;28.50;57.10
62259;DHT22;48241;48.824;10.102;2023-09-08T11:07:40;28.70;56.40
62259;DHT22;48241;48.824;10.102;2023-09-08T11:10:07;28.80;54.70
62259;DHT22;48241;48.824;10.102;2023-09-08T11:12:33;29.00;64.10
62259;DHT22;48241;48.824;10.102;2023-09-08T11:14:59;29.00;55.80
62259;DHT22;48241;48.824;10.102;2023-09-08T11:17:37;29.20;56.30
62259;DHT22;48241;48.824;10.102;2023-09-08T11:20:07;28.90;53.70
62259;DHT22;48241;48.824;10.102;2023-09-08T11:22:34;28.50;55.90
62259;DHT22;48241;48.824;10.102;2023-09-08T11:25:01;28.70;56.20
62259;DHT22;48241;48.824;10.102;2023-09-08T11:27:30;28.60;55.60
62259;DHT22;48241;48.824;10.102;2023-09-08T11:29:56;28.20;56.70
62259;DHT22;48241;48.824;10.102;2023-09-08T11:32:22;27.90;58.00
62259;DHT22;48241;48.824;10.102;2023-09-08T11:34:48;27.60;56.70
62259;DHT22;48241;48.824;10.102;2023-09-08T11:37:15;27.40;58.70
62259;DHT22;48241;48.824;10.102;2023-09-08T11:39:43;27.70;61.40
62259;DHT22;48241;48.824;10.102;2023-09-08T11:42:12;27.80;58.50
62259;DHT22;48241;48.824;10.102;2023-09-08T11:44:38;27.90;55.10
62259;DHT22;48241;48.824;10.102;2023-09-08T11:47:06;28.20;54.40
62259;DHT22;48241;48.824;10.102;2023-09-08T11:49:35;28.50;60.90
62259;DHT22;48241;48.824;10.102;2023-09-08T11:52:02;28.50;61.80
62259;DHT22;48241;48.824;10.102;2023-09-08T11:54:28;28.60;63.60
62259;DHT22;48241;48.824;10.102;2023-09-08T11:56:54;28.70;56.60
62259;DHT22;48241;48.824;10.102;2023-09-08T11:59:20;28.90;55.70
62259;DHT22;48241;48.824;10.102;2023-09-08T12:01:46;29.00;62.70
62259;DHT22;48241;48.824;10.102;2023-09-08T12:04:18;29.10;67.10
62259;DHT22;48241;48.824;10.102;2023-09-08T12:06:48;29.10;60.80
62259;DHT22;48241;48.824;10.102;2023-09-08T12:09:14;29.10;64.30
62259;DHT22;48241;48.824;10.102;2023-09-08T12:11:40;29.20;64.00
62259;DHT22;48241;48.824;10.102;2023-09-08T12:14:12;29.20;64.60
62259;DHT22;48241;48.824;10.102;2023-09-08T12:16:38;29.40;64.70
62259;DHT22;48241;48.824;10.102;2023-09-08T12:19:04;29.50;55.50
62259;DHT22;48241;48.824;10.102;2023-09-08T12:21:29;29.20;54.30
62259;DHT22;48241;48.824;10.102;2023-09-08T12:23:57;29.30;60.60
62259;DHT22;48241;48.824;10.102;2023-09-08T12:26:25;29.30;65.70
62259;DHT22;48241;48.824;10.102;2023-09-08T12:28:51;29.40;67.00
62259;DHT22;48241;48.824;10.102;2023-09-08T12:31:17;29.50;62.30
62259;DHT22;48241;48.824;10.102;2023-09-08T12:33:44;29.50;59.00
62259;DHT22;48241;48.824;10.102;2023-09-08T12:36:14;29.40;64.40
62259;DHT22;48241;48.824;10.102;2023-09-08T12:38:40;29.50;65.20
62259;DHT22;48241;48.824;10.102;2023-09-08T12:41:06;29.60;66.80
62259;DHT22;48241;48.824;10.102;2023-09-08T12:43:31;29.40;67.90
62259;DHT22;48241;48.824;10.102;2023-09-08T12:45:57;29.40;65.40
62259;DHT22;48241;48.824;10.102;2023-09-08T12:48:23;29.30;67.90
62259;DHT22;48241;48.824;10.102;2023-09-08T12:50:49;29.20;65.60
62259;DHT22;48241;48.824;10.102;2023-09-08T12:53:15;29.10;65.40
62259;DHT22;48241;48.824;10.102;2023-09-08T12:55:42;29.00;69.70
62259;DHT22;48241;48.824;10.102;2023-09-08T12:58:07;29.20;70.00
62259;DHT22;48241;48.824;10.102;2023-09-08T13:00:33;29.10;57.10
62259;DHT22;48241;48.824;10.102;2023-09-08T13:02:59;29.10;68.90
62259;DHT22;48241;48.824;10.102;2023-09-08T13:05:24;29.20;67.80
62259;DHT22;48241;48.824;10.102;2023-09-08T13:07:50;29.10;65.50
62259;DHT22;48241;48.824;10.102;2023-09-08T13:10:15;29.00;68.40
62259;DHT22;48241;48.824;10.102;2023-09-08T13:12:41;29.10;71.30
62259;DHT22;48241;48.824;10.102;2023-09-08T13:15:07;29.00;65.10
62259;DHT22;48241;48.824;10.102;2023-09-08T13:17:33;29.00;66.30
62259;DHT22;48241;48.824;10.102;2023-09-08T13:19:59;29.00;67.40
62259;DHT22;48241;48.824;10.102;2023-09-08T13:22:24;29.00;71.00
62259;DHT22;48241;48.824;10.102;2023-09-08T13:24:50;28.90;67.00
62259;DHT22;48241;48.824;10.102;2023-09-08T13:27:16;28.90;69.50
62259;DHT22;48241;48.824;10.102;2023-09-08T13:29:43;28.80;71.80
62259;DHT22;48241;48.824;10.102;2023-09-08T13:32:08;28.70;74.60
62259;DHT22;48241;48.824;10.102;2023-09-08T13:34:35;28.60;73.60
62259;DHT22;48241;48.824;10.102;2023-09-08T13:37:01;28.70;72.10
62259;DHT22;48241;48.824;10.102;2023-09-08T13:39:28;28.40;73.60
62259;DHT22;48241;48.824;10.102;2023-09-08T13:41:54;28.50;74.90
62259;DHT22;48241;48.824;10.102;2023-09-08T13:44:21;28.60;74.50
62259;DHT22;48241;48.824;10.102;2023-09-08T13:46:48;28.50;72.20
62259;DHT22;48241;48.824;10.102;2023-09-08T13:49:14;28.50;74.80
62259;DHT22;48241;48.824;10.102;2023-09-08T13:51:40;28.60;72.30
62259;DHT22;48241;48.824;10.102;2023-09-08T13:54:07;28.50;75.50
62259;DHT22;48241;48.824;10.102;2023-09-08T13:56:33;28.30;74.60
62259;DHT22;48241;48.824;10.102;2023-09-08T13:58:59;28.40;72.20
62259;DHT22;48241;48.824;10.102;2023-09-08T14:01:25;28.20;74.80
62259;DHT22;48241;48.824;10.102;2023-09-08T14:03:53;28.20;74.60
62259;DHT22;48241;48.824;10.102;2023-09-08T14:06:18;28.10;75.30
62259;DHT22;48241;48.824;10.102;2023-09-08T14:08:44;28.00;74.10
62259;DHT22;48241;48.824;10.102;2023-09-08T14:11:10;28.10;67.60
62259;DHT22;48241;48.824;10.102;2023-09-08T14:13:37;28.20;76.40
62259;DHT22;48241;48.824;10.102;2023-09-08T14:16:03;28.00;76.00
62259;DHT22;48241;48.824;10.102;2023-09-08T14:18:29;28.00;75.90
62259;DHT22;48241;48.824;10.102;2023-09-08T14:20:55;27.90;75.50
62259;DHT22;48241;48.824;10.102;2023-09-08T14:23:20;28.00;75.40
62259;DHT22;48241;48.824;10.102;2023-09-08T14:25:46;27.90;76.40
62259;DHT22;48241;48.824;10.102;2023-09-08T14:28:11;27.80;76.50
62259;DHT22;48241;48.824;10.102;2023-09-08T14:30:37;27.80;77.30
62259;DHT22;48241;48.824;10.102;2023-09-08T14:33:03;27.60;74.30
62259;DHT22;48241;48.824;10.102;2023-09-08T14:35:29;27.50;67.10
62259;DHT22;48241;48.824;10.102;2023-09-08T14:37:54;27.50;75.40
62259;DHT22;48241;48.824;10.102;2023-09-08T14:40:22;27.60;76.90
62259;DHT22;48241;48.824;10.102;2023-09-08T14:42:48;27.50;76.50
62259;DHT22;48241;48.824;10.102;2023-09-08T14:45:13;27.50;75.60
62259;DHT22;48241;48.824;10.102;2023-09-08T14:47:39;27.40;76.70
62259;DHT22;48241;48.824;10.102;2023-09-08T14:50:05;27.50;74.90
62259;DHT22;48241;48.824;10.102;2023-09-08T14:52:31;27.40;75.50
62259;DHT22;48241;48.824;10.102;2023-09-08T14:54:56;27.40;73.90
62259;DHT22;48241;48.824;10.102;2023-09-08T14:57:22;27.40;76.30
62259;DHT22;48241;48.824;10.102;2023-09-08T14:59:48;27.50;73.80
62259;DHT22;48241;48.824;10.102;2023-09-08T15:02:14;27.40;75.20
62259;DHT22;48241;48.824;10.102;2023-09-08T15:04:40;27.20;76.70
62259;DHT22;48241;48.824;10.102;2023-09-08T15:07:06;26.90;79.10
62259;DHT22;48241;48.824;10.102;2023-09-08T15:09:32;27.10;76.80
62259;DHT22;48241;48.824;10.102;2023-09-08T15:11:58;27.20;73.90
62259;DHT22;48241;48.824;10.102;2023-09-08T15:14:24;27.30;72.20
62259;DHT22;48241;48.824;10.102;2023-09-08T15:16:50;27.50;76.20
62259;DHT22;48241;48.824;10.102;2023-09-08T15:19:15;27.40;78.60